createdAt,value
2023-05-22T00:02:11.237Z,12.48
2023-05-22T00:04:38.303Z,12.93
2023-05-22T00:07:06.691Z,12.90
2023-05-22T00:09:33.639Z,14.25
2023-05-22T00:12:00.652Z,16.58
2023-05-22T00:14:27.738Z,16.45
2023-05-22T00:16:57.214Z,16.40
2023-05-22T00:19:24.350Z,16.88
2023-05-22T00:21:51.464Z,16.13
2023-05-22T00:24:18.524Z,16.55
2023-05-22T00:26:45.960Z,16.52
2023-05-22T00:29:13.016Z,18.38
2023-05-22T00:31:40.103Z,18.38
2023-05-22T00:34:07.349Z,18.42
2023-05-22T00:36:34.431Z,19.83
2023-05-22T00:39:01.380Z,19.85
2023-05-22T00:41:28.403Z,19.45
2023-05-22T00:43:55.489Z,18.48
2023-05-22T00:46:22.926Z,19.00
2023-05-22T00:48:50.118Z,19.90
2023-05-22T00:51:17.128Z,20.92
2023-05-22T00:53:45.131Z,20.10
2023-05-22T00:56:13.198Z,21.00
2023-05-22T00:58:40.137Z,21.08
2023-05-22T01:01:11.500Z,21.55
2023-05-22T01:03:44.933Z,21.52
2023-05-22T01:06:18.394Z,22.92
2023-05-22T01:08:45.491Z,22.45
2023-05-22T01:11:44.540Z,22.80
2023-05-22T01:14:17.379Z,21.10
2023-05-22T01:17:34.944Z,22.15
2023-05-22T01:20:23.329Z,22.00
2023-05-22T01:23:11.002Z,21.13
2023-05-22T01:26:08.328Z,22.02
2023-05-22T01:29:01.056Z,21.98
2023-05-22T01:31:31.492Z,22.45
2023-05-22T01:34:02.646Z,25.05
2023-05-22T01:36:35.109Z,24.25
2023-05-22T01:39:06.118Z,24.33
2023-05-22T01:41:34.417Z,25.25
2023-05-22T01:44:02.323Z,26.25
2023-05-22T01:46:30.368Z,26.10
2023-05-22T01:48:57.923Z,26.45
2023-05-22T01:51:33.891Z,27.23
2023-05-22T01:54:18.288Z,27.17
2023-05-22T01:56:56.758Z,26.60
2023-05-22T01:59:34.535Z,25.77
2023-05-22T02:02:09.187Z,27.05
2023-05-22T02:04:39.728Z,27.48
2023-05-22T02:07:07.574Z,26.67
2023-05-22T02:09:37.157Z,27.95
2023-05-22T02:12:04.630Z,26.92
2023-05-22T02:14:32.365Z,27.42
2023-05-22T02:17:02.977Z,28.55
2023-05-22T02:19:30.116Z,28.65
2023-05-22T02:21:57.277Z,28.02
2023-05-22T02:24:24.317Z,26.40
2023-05-22T02:26:51.556Z,26.50
2023-05-22T02:29:18.644Z,26.75
2023-05-22T02:31:45.903Z,24.23
2023-05-22T02:34:13.179Z,23.83
2023-05-22T02:36:41.085Z,24.58
2023-05-22T02:39:08.857Z,24.02
2023-05-22T02:41:35.736Z,24.27
2023-05-22T02:44:03.030Z,24.38
2023-05-22T02:46:30.220Z,24.15
2023-05-22T02:48:57.324Z,24.10
2023-05-22T02:51:24.379Z,22.52
2023-05-22T02:53:51.793Z,23.83
2023-05-22T02:56:19.017Z,22.63
2023-05-22T02:58:46.023Z,23.05
2023-05-22T03:01:13.106Z,23.27
2023-05-22T03:03:40.660Z,22.52
2023-05-22T03:06:08.929Z,24.60
2023-05-22T03:08:41.659Z,25.23
2023-05-22T03:11:08.842Z,24.13
2023-05-22T03:13:36.735Z,24.05
2023-05-22T03:16:03.875Z,24.15
2023-05-22T03:18:30.957Z,23.27
2023-05-22T03:20:57.799Z,23.52
2023-05-22T03:23:25.379Z,24.90
2023-05-22T03:25:52.475Z,22.55
2023-05-22T03:28:19.468Z,22.77
2023-05-22T03:30:46.785Z,21.85
2023-05-22T03:33:14.009Z,23.70
2023-05-22T03:35:43.390Z,23.15
2023-05-22T03:38:10.658Z,22.17
2023-05-22T03:40:38.003Z,22.67
2023-05-22T03:43:05.251Z,21.20
2023-05-22T03:45:32.374Z,20.73
2023-05-22T03:47:59.524Z,20.48
2023-05-22T03:50:26.431Z,20.58
2023-05-22T03:52:53.305Z,21.20
2023-05-22T03:55:20.187Z,20.70
2023-05-22T03:57:47.341Z,19.90
2023-05-22T04:00:17.118Z,20.55
2023-05-22T04:02:45.393Z,20.98
2023-05-22T04:05:12.743Z,20.55
2023-05-22T04:07:39.739Z,21.48
2023-05-22T04:10:07.190Z,21.55
2023-05-22T04:12:34.250Z,20.83
2023-05-22T04:15:01.564Z,21.85
2023-05-22T04:17:34.839Z,21.15
2023-05-22T04:20:01.859Z,21.10
2023-05-22T04:22:31.747Z,22.08
2023-05-22T04:24:58.790Z,22.92
2023-05-22T04:27:26.552Z,22.30
2023-05-22T04:29:53.699Z,22.67
2023-05-22T04:32:21.926Z,24.83
2023-05-22T04:34:52.536Z,23.55
2023-05-22T04:37:20.513Z,24.58
2023-05-22T04:39:47.660Z,24.95
2023-05-22T04:42:16.121Z,25.80
2023-05-22T04:44:44.398Z,24.85
2023-05-22T04:47:12.175Z,26.60
2023-05-22T04:49:39.228Z,25.83
2023-05-22T04:52:07.306Z,26.65
2023-05-22T04:54:34.612Z,27.80
2023-05-22T04:57:04.590Z,25.45
2023-05-22T04:59:40.222Z,27.33
2023-05-22T05:02:07.347Z,26.63
2023-05-22T05:04:34.291Z,25.98
2023-05-22T05:07:02.614Z,26.33
2023-05-22T05:09:29.913Z,27.20
2023-05-22T05:11:56.929Z,24.70
2023-05-22T05:14:24.097Z,25.25
2023-05-22T05:16:53.999Z,24.88
2023-05-22T05:19:21.702Z,25.25
2023-05-22T05:21:52.581Z,26.02
2023-05-22T05:24:19.677Z,25.95
2023-05-22T05:26:46.620Z,28.73
2023-05-22T05:29:13.925Z,29.10
2023-05-22T05:31:41.200Z,27.58
2023-05-22T05:34:08.269Z,28.05
2023-05-22T05:36:35.726Z,27.63
2023-05-22T05:39:02.652Z,27.33
2023-05-22T05:41:29.744Z,26.60
2023-05-22T05:44:00.320Z,27.83
2023-05-22T05:46:27.495Z,27.42
2023-05-22T05:48:54.718Z,28.95
2023-05-22T05:51:22.318Z,28.70
2023-05-22T05:53:49.820Z,28.25
2023-05-22T05:56:16.911Z,27.15
2023-05-22T05:58:43.959Z,26.25
2023-05-22T06:01:11.905Z,27.10
2023-05-22T06:03:41.376Z,26.95
2023-05-22T06:06:08.543Z,27.15
2023-05-22T06:08:36.079Z,27.10
2023-05-22T06:11:03.454Z,24.83
2023-05-22T06:13:30.444Z,25.60
2023-05-22T06:15:59.804Z,24.70
2023-05-22T06:18:28.788Z,25.92
2023-05-22T06:20:59.266Z,27.08
2023-05-22T06:23:26.505Z,29.88
2023-05-22T06:25:54.153Z,31.63
2023-05-22T06:28:21.428Z,38.70
2023-05-22T06:30:48.601Z,36.55
2023-05-22T06:33:16.031Z,33.55
2023-05-22T06:35:43.273Z,33.05
2023-05-22T06:38:10.272Z,30.67
2023-05-22T06:40:37.561Z,31.77
2023-05-22T06:43:04.776Z,32.53
2023-05-22T06:45:31.815Z,35.13
2023-05-22T06:47:58.994Z,35.88
2023-05-22T06:50:26.155Z,34.15
2023-05-22T06:52:53.250Z,36.25
2023-05-22T06:55:20.388Z,39.00
2023-05-22T06:57:48.407Z,40.33
2023-05-22T07:00:16.612Z,38.17
2023-05-22T07:02:44.021Z,41.35
2023-05-22T07:05:11.813Z,42.78
2023-05-22T07:07:38.729Z,38.45
2023-05-22T07:10:06.481Z,34.53
2023-05-22T07:12:33.499Z,32.58
2023-05-22T07:15:00.638Z,35.85
2023-05-22T07:17:27.700Z,35.25
2023-05-22T07:19:54.693Z,38.33
2023-05-22T07:22:21.601Z,40.15
2023-05-22T07:24:48.468Z,43.80
2023-05-22T07:27:15.671Z,43.38
2023-05-22T07:29:42.687Z,40.88
2023-05-22T07:32:09.688Z,41.33
2023-05-22T07:34:37.521Z,38.55
2023-05-22T07:37:09.283Z,37.13
2023-05-22T07:39:36.638Z,38.03
2023-05-22T07:42:05.708Z,38.05
2023-05-22T07:44:33.724Z,39.45
2023-05-22T07:47:00.920Z,39.35
2023-05-22T07:49:28.826Z,36.25
2023-05-22T07:51:55.977Z,35.90
2023-05-22T07:54:22.889Z,35.55
2023-05-22T07:56:50.903Z,37.75
2023-05-22T07:59:19.672Z,38.38
2023-05-22T08:01:46.961Z,37.90
2023-05-22T08:04:14.384Z,36.30
2023-05-22T08:06:43.903Z,34.55
2023-05-22T08:09:11.083Z,35.47
2023-05-22T08:11:40.785Z,34.75
2023-05-22T08:14:08.387Z,37.00
2023-05-22T08:16:35.835Z,35.95
2023-05-22T08:19:03.562Z,32.78
2023-05-22T08:21:33.350Z,33.33
2023-05-22T08:24:01.663Z,35.53
2023-05-22T08:26:30.128Z,34.10
2023-05-22T08:28:58.950Z,33.83
2023-05-22T08:31:26.131Z,33.33
2023-05-22T08:33:53.125Z,32.92
2023-05-22T08:36:20.366Z,31.58
2023-05-22T08:38:47.203Z,30.45
2023-05-22T08:41:15.773Z,29.27
2023-05-22T08:43:42.825Z,29.40
2023-05-22T08:46:10.717Z,29.13
2023-05-22T08:48:39.243Z,26.10
2023-05-22T08:51:07.706Z,25.13
2023-05-22T08:53:38.618Z,25.02
2023-05-22T08:56:07.318Z,22.67
2023-05-22T08:58:36.945Z,20.38
2023-05-22T09:01:06.368Z,18.50
2023-05-22T09:03:34.401Z,16.55
2023-05-22T09:06:02.557Z,15.68
2023-05-22T09:08:29.458Z,14.82
2023-05-22T09:10:57.539Z,16.27
2023-05-22T09:13:27.333Z,16.17
2023-05-22T09:15:59.592Z,16.45
2023-05-22T09:18:30.275Z,15.73
2023-05-22T09:20:58.481Z,16.27
2023-05-22T09:23:28.771Z,14.73
2023-05-22T09:26:00.175Z,14.35
2023-05-22T09:28:30.073Z,14.73
2023-05-22T09:30:59.448Z,13.40
2023-05-22T09:33:27.806Z,15.45
2023-05-22T09:35:56.654Z,14.40
2023-05-22T09:38:26.816Z,13.95
2023-05-22T09:40:54.857Z,14.57
2023-05-22T09:43:25.423Z,13.18
2023-05-22T09:46:01.904Z,13.13
2023-05-22T09:48:29.189Z,14.38
2023-05-22T09:50:59.997Z,12.60
2023-05-22T09:53:31.165Z,13.73
2023-05-22T09:56:00.460Z,13.15
2023-05-22T09:58:31.468Z,13.07
2023-05-22T10:00:59.385Z,13.27
2023-05-22T10:03:27.504Z,13.02
2023-05-22T10:05:58.619Z,13.60
2023-05-22T10:08:28.689Z,12.13
2023-05-22T10:10:56.192Z,12.63
2023-05-22T10:13:25.736Z,10.75
2023-05-22T10:15:53.501Z,11.77
2023-05-22T10:18:20.798Z,12.98
2023-05-22T10:20:49.171Z,12.63
2023-05-22T10:23:17.222Z,13.57
2023-05-22T10:25:45.685Z,13.30
2023-05-22T10:28:17.920Z,14.55
2023-05-22T10:30:56.267Z,13.90
2023-05-22T10:33:29.601Z,14.80
2023-05-22T10:36:04.117Z,14.48
2023-05-22T10:38:56.297Z,14.88
2023-05-22T10:41:24.551Z,15.10
2023-05-22T10:43:52.169Z,17.67
2023-05-22T10:46:19.524Z,17.92
2023-05-22T10:48:48.668Z,18.90
2023-05-22T10:51:21.207Z,19.60
2023-05-22T10:53:55.620Z,19.63
2023-05-22T10:56:25.343Z,20.88
2023-05-22T10:59:08.164Z,21.67
2023-05-22T11:01:38.085Z,19.67
2023-05-22T11:04:07.102Z,18.50
2023-05-22T11:06:41.628Z,16.25
2023-05-22T11:09:32.734Z,14.23
2023-05-22T11:12:27.408Z,12.38
2023-05-22T11:14:58.278Z,13.80
2023-05-22T11:17:32.907Z,14.93
2023-05-22T11:20:08.236Z,13.80
2023-05-22T11:22:38.013Z,13.70
2023-05-22T11:25:16.761Z,14.23
2023-05-22T11:27:44.861Z,13.00
2023-05-22T11:30:13.224Z,13.30
2023-05-22T11:32:44.967Z,13.30
2023-05-22T11:35:19.652Z,13.50
2023-05-22T11:37:47.596Z,13.15
2023-05-22T11:40:16.990Z,12.93
2023-05-22T11:42:44.566Z,12.63
2023-05-22T11:45:12.051Z,13.02
2023-05-22T11:47:39.294Z,13.30
2023-05-22T11:50:09.867Z,14.32
2023-05-22T11:52:38.213Z,12.10
2023-05-22T11:55:06.359Z,12.55
2023-05-22T11:57:34.434Z,11.93
2023-05-22T12:00:02.100Z,11.50
2023-05-22T12:02:30.116Z,12.23
2023-05-22T12:04:58.379Z,11.75
2023-05-22T12:07:27.622Z,11.93
2023-05-22T12:09:57.770Z,11.23
2023-05-22T12:12:26.127Z,12.65
2023-05-22T12:14:53.411Z,12.35
2023-05-22T12:17:20.545Z,13.20
2023-05-22T12:19:48.394Z,12.18
2023-05-22T12:22:15.694Z,12.48
2023-05-22T12:24:46.353Z,11.65
2023-05-22T12:27:14.992Z,12.98
2023-05-22T12:29:42.911Z,11.90
2023-05-22T12:32:11.763Z,12.25
2023-05-22T12:34:49.911Z,12.95
2023-05-22T12:37:28.382Z,13.00
2023-05-22T12:40:00.239Z,12.73
2023-05-22T12:42:28.451Z,13.55
2023-05-22T12:44:57.002Z,12.60
2023-05-22T12:47:26.594Z,12.63
2023-05-22T12:49:53.628Z,12.48
2023-05-22T12:52:20.883Z,12.48
2023-05-22T12:54:48.621Z,11.75
2023-05-22T12:57:17.057Z,13.18
2023-05-22T12:59:44.223Z,12.90
2023-05-22T13:02:11.437Z,13.30
2023-05-22T13:04:38.850Z,13.60
2023-05-22T13:07:06.184Z,13.18
2023-05-22T13:09:33.057Z,13.82
2023-05-22T13:12:00.258Z,12.95
2023-05-22T13:14:27.348Z,12.43
2023-05-22T13:16:54.485Z,12.75
2023-05-22T13:19:21.582Z,12.18
2023-05-22T13:21:48.558Z,12.00
2023-05-22T13:24:15.500Z,12.43
2023-05-22T13:26:42.516Z,12.23
2023-05-22T13:29:10.023Z,12.43
2023-05-22T13:31:38.982Z,14.85
2023-05-22T13:34:06.062Z,16.27
2023-05-22T13:36:34.122Z,21.23
2023-05-22T13:39:01.064Z,19.42
2023-05-22T13:41:27.992Z,17.73
2023-05-22T13:43:55.042Z,14.82
2023-05-22T13:46:23.427Z,17.88
2023-05-22T13:48:50.740Z,16.60
2023-05-22T13:51:18.002Z,13.32
2023-05-22T13:53:45.174Z,14.23
2023-05-22T13:56:12.022Z,17.75
2023-05-22T13:58:38.957Z,15.90
2023-05-22T14:01:06.766Z,16.35
2023-05-22T14:03:36.078Z,17.08
2023-05-22T14:06:02.951Z,21.25
2023-05-22T14:08:29.921Z,16.77
2023-05-22T14:10:56.842Z,18.20
2023-05-22T14:13:23.932Z,17.00
2023-05-22T14:15:51.155Z,17.25
2023-05-22T14:18:18.284Z,16.27
2023-05-22T14:20:46.162Z,16.70
2023-05-22T14:23:13.785Z,16.23
2023-05-22T14:25:44.506Z,14.70
2023-05-22T14:28:12.676Z,15.95
2023-05-22T14:30:40.302Z,14.93
2023-05-22T14:33:07.881Z,14.52
2023-05-22T14:35:35.174Z,16.08
2023-05-22T14:38:02.311Z,15.63
2023-05-22T14:40:29.372Z,15.38
2023-05-22T14:42:56.341Z,15.20
2023-05-22T14:45:23.895Z,18.38
2023-05-22T14:47:51.171Z,14.25
2023-05-22T14:50:20.322Z,12.85
2023-05-22T14:52:49.284Z,14.50
2023-05-22T14:55:17.123Z,12.98
2023-05-22T14:57:44.247Z,12.85
2023-05-22T15:00:12.412Z,12.95
2023-05-22T15:02:42.054Z,13.57
2023-05-22T15:05:10.077Z,12.43
2023-05-22T15:10:08.863Z,16.40
2023-05-22T15:12:35.891Z,14.73
2023-05-22T15:15:03.003Z,14.82
2023-05-22T15:17:30.201Z,14.65
2023-05-22T15:19:57.261Z,15.50
2023-05-22T15:22:24.161Z,18.25
2023-05-22T15:25:05.536Z,22.25
2023-05-22T15:27:34.705Z,18.35
2023-05-22T15:30:02.590Z,16.35
2023-05-22T15:32:31.494Z,15.57
2023-05-22T15:34:58.523Z,14.88
2023-05-22T15:37:25.508Z,15.02
2023-05-22T15:39:52.829Z,14.95
2023-05-22T15:42:20.876Z,14.88
2023-05-22T15:44:51.084Z,14.77
2023-05-22T15:47:18.115Z,15.98
2023-05-22T15:49:45.021Z,15.45
2023-05-22T15:52:12.018Z,14.95
2023-05-22T15:54:39.246Z,15.15
2023-05-22T15:57:06.516Z,17.20
2023-05-22T15:59:33.733Z,15.48
2023-05-22T16:02:01.550Z,15.38
2023-05-22T16:04:28.551Z,16.42
2023-05-22T16:06:55.614Z,15.90
2023-05-22T16:09:22.631Z,18.25
2023-05-22T16:11:49.618Z,19.52
2023-05-22T16:14:16.592Z,20.10
2023-05-22T16:16:43.892Z,23.52
2023-05-22T16:19:11.715Z,22.90
2023-05-22T16:21:39.152Z,23.58
2023-05-22T16:24:07.140Z,21.95
2023-05-22T16:26:34.384Z,21.02
2023-05-22T16:29:01.242Z,22.85
2023-05-22T16:31:28.866Z,22.88
2023-05-22T16:33:56.203Z,23.02
2023-05-22T16:36:25.113Z,23.02
2023-05-22T16:38:53.254Z,22.52
2023-05-22T16:41:20.195Z,23.38
2023-05-22T16:43:47.199Z,23.05
2023-05-22T16:46:14.172Z,22.05
2023-05-22T16:48:41.512Z,22.33
2023-05-22T16:51:09.258Z,21.02
2023-05-22T16:53:38.180Z,21.98
2023-05-22T16:56:05.888Z,24.05
2023-05-22T16:58:32.786Z,24.45
2023-05-22T17:00:59.915Z,23.85
2023-05-22T17:03:27.748Z,23.88
2023-05-22T17:05:55.112Z,22.83
2023-05-22T17:08:22.012Z,23.10
2023-05-22T17:10:49.072Z,22.42
2023-05-22T17:13:21.010Z,24.35
2023-05-22T17:15:51.835Z,25.13
2023-05-22T17:18:22.357Z,24.17
2023-05-22T17:20:50.242Z,22.38
2023-05-22T17:23:20.966Z,22.98
2023-05-22T17:25:48.742Z,24.25
2023-05-22T17:28:15.782Z,23.58
2023-05-22T17:30:45.269Z,24.50
2023-05-22T17:33:12.860Z,24.65
2023-05-22T17:35:39.851Z,23.92
2023-05-22T17:38:09.502Z,23.58
2023-05-22T17:40:44.696Z,25.90
2023-05-22T17:43:13.135Z,22.95
2023-05-22T17:45:40.797Z,23.30
2023-05-22T17:48:08.435Z,23.50
2023-05-22T17:50:35.444Z,23.38
2023-05-22T17:53:02.458Z,23.48
2023-05-22T17:55:29.385Z,22.35
2023-05-22T17:57:56.513Z,21.67
2023-05-22T18:00:23.633Z,21.02
2023-05-22T18:02:51.289Z,19.67
2023-05-22T18:05:21.570Z,18.48
2023-05-22T18:07:48.692Z,16.52
2023-05-22T18:10:15.735Z,16.92
2023-05-22T18:12:42.654Z,16.73
2023-05-22T18:15:12.374Z,16.08
2023-05-22T18:17:41.192Z,15.43
2023-05-22T18:20:12.014Z,15.05
2023-05-22T18:22:40.140Z,15.07
2023-05-22T18:25:07.696Z,14.18
2023-05-22T18:27:37.058Z,14.88
2023-05-22T18:30:05.337Z,14.35
2023-05-22T18:32:32.501Z,13.18
2023-05-22T18:35:02.510Z,13.82
2023-05-22T18:37:29.678Z,15.48
2023-05-22T18:39:56.578Z,14.15
2023-05-22T18:42:23.803Z,14.13
2023-05-22T18:44:50.966Z,14.35
2023-05-22T18:47:18.168Z,12.90
2023-05-22T18:49:46.795Z,13.23
2023-05-22T18:52:13.938Z,13.85
2023-05-22T18:54:41.023Z,14.10
2023-05-22T18:57:08.072Z,13.18
2023-05-22T18:59:35.038Z,13.52
2023-05-22T19:02:02.478Z,13.73
2023-05-22T19:04:31.655Z,13.65
2023-05-22T19:06:59.110Z,14.00
2023-05-22T19:09:26.135Z,15.43
2023-05-22T19:11:53.029Z,15.68
2023-05-22T19:14:20.117Z,15.13
2023-05-22T19:16:47.028Z,16.67
2023-05-22T19:19:14.897Z,17.15
2023-05-22T19:21:42.113Z,17.63
2023-05-22T19:24:09.358Z,18.10
2023-05-22T19:26:37.279Z,16.63
2023-05-22T19:29:04.318Z,16.85
2023-05-22T19:31:31.326Z,18.17
2023-05-22T19:33:58.352Z,18.60
2023-05-22T19:36:25.644Z,17.20
2023-05-22T19:38:53.585Z,18.08
2023-05-22T19:41:20.896Z,17.85
2023-05-22T19:43:47.944Z,18.77
2023-05-22T19:46:14.887Z,19.27
2023-05-22T19:48:42.049Z,20.45
2023-05-22T19:51:09.176Z,20.88
2023-05-22T19:53:36.580Z,21.20
2023-05-22T19:56:05.953Z,21.33
2023-05-22T19:58:32.992Z,19.17
2023-05-22T20:01:00.321Z,19.88
2023-05-22T20:03:28.148Z,18.83
2023-05-22T20:05:55.755Z,19.80
2023-05-22T20:08:23.364Z,19.58
2023-05-22T20:10:52.851Z,20.55
2023-05-22T20:13:20.108Z,20.00
2023-05-22T20:15:47.894Z,21.02
2023-05-22T20:18:15.818Z,20.85
2023-05-22T20:20:42.891Z,20.35
2023-05-22T20:23:09.946Z,22.88
2023-05-22T20:25:37.870Z,21.35
2023-05-22T20:28:05.388Z,20.42
2023-05-22T20:30:32.654Z,22.45
2023-05-22T20:32:59.575Z,21.40
2023-05-22T20:35:26.958Z,21.73
2023-05-22T20:37:53.901Z,20.73
2023-05-22T20:40:20.922Z,22.25
2023-05-22T20:42:47.928Z,20.83
2023-05-22T20:45:16.073Z,21.92
2023-05-22T20:47:43.408Z,21.92
2023-05-22T20:50:11.253Z,22.70
2023-05-22T20:52:38.294Z,22.67
2023-05-22T20:55:06.015Z,22.63
2023-05-22T20:57:32.895Z,22.08
2023-05-22T20:59:59.792Z,21.30
2023-05-22T21:02:26.870Z,22.85
2023-05-22T21:04:54.321Z,21.50
2023-05-22T21:07:21.377Z,24.13
2023-05-22T21:09:48.632Z,21.05
2023-05-22T21:12:15.805Z,22.05
2023-05-22T21:14:44.158Z,22.58
2023-05-22T21:17:11.227Z,22.05
2023-05-22T21:19:38.233Z,21.58
2023-05-22T21:22:05.569Z,20.20
2023-05-22T21:24:34.470Z,21.13
2023-05-22T21:27:01.689Z,21.60
2023-05-22T21:29:28.760Z,22.17
2023-05-22T21:31:55.837Z,21.77
2023-05-22T21:34:23.025Z,21.15
2023-05-22T21:36:50.618Z,21.05
2023-05-22T21:39:18.365Z,21.75
2023-05-22T21:41:45.682Z,22.58
2023-05-22T21:44:13.188Z,22.52
2023-05-22T21:46:41.213Z,22.52
2023-05-22T21:49:09.616Z,20.58
2023-05-22T21:51:37.030Z,23.33
2023-05-22T21:54:04.514Z,24.80
2023-05-22T21:56:31.563Z,22.80
2023-05-22T21:58:58.401Z,22.30
2023-05-22T22:01:25.668Z,22.02
2023-05-22T22:03:54.645Z,22.50
2023-05-22T22:06:21.723Z,22.15
2023-05-22T22:08:49.498Z,22.42
2023-05-22T22:11:16.352Z,19.83
2023-05-22T22:13:43.354Z,19.42
2023-05-22T22:16:10.529Z,18.50
2023-05-22T22:18:37.523Z,20.98
2023-05-22T22:21:04.801Z,18.33
2023-05-22T22:23:32.745Z,19.35
2023-05-22T22:25:59.914Z,20.70
2023-05-22T22:28:27.031Z,20.20
2023-05-22T22:30:55.272Z,20.48
2023-05-22T22:33:23.007Z,21.88
2023-05-22T22:35:50.007Z,20.20
2023-05-22T22:38:17.133Z,20.25
2023-05-22T22:40:44.181Z,18.35
2023-05-22T22:43:11.067Z,16.83
2023-05-22T22:45:40.649Z,17.42
2023-05-22T22:48:08.029Z,16.85
2023-05-22T22:50:34.928Z,16.45
2023-05-22T22:53:01.954Z,15.77
2023-05-22T22:55:29.183Z,16.35
2023-05-22T22:57:56.647Z,15.82
2023-05-22T23:00:24.013Z,17.17
2023-05-22T23:02:52.735Z,18.48
2023-05-22T23:05:20.633Z,16.42
2023-05-22T23:07:49.228Z,16.90
2023-05-22T23:10:16.303Z,16.48
2023-05-22T23:12:43.354Z,16.73
2023-05-22T23:15:13.132Z,16.83
2023-05-22T23:17:42.063Z,17.65
2023-05-22T23:20:09.857Z,19.60
2023-05-22T23:22:36.900Z,20.08
2023-05-22T23:25:04.081Z,20.38
2023-05-22T23:27:31.733Z,20.40
2023-05-22T23:29:58.688Z,21.75
2023-05-22T23:32:25.759Z,22.58
2023-05-22T23:34:52.875Z,21.80
2023-05-22T23:37:19.971Z,22.40
2023-05-22T23:39:46.903Z,21.52
2023-05-22T23:42:16.107Z,21.48
2023-05-22T23:44:43.148Z,21.10
2023-05-22T23:47:10.386Z,20.42
2023-05-22T23:49:37.490Z,20.38
2023-05-22T23:52:04.639Z,21.13
2023-05-22T23:54:31.562Z,22.58
2023-05-22T23:56:58.600Z,22.80
2023-05-22T23:59:25.610Z,22.05
